sensor_id;sensor_type;location;lat;lon;timestamp;P1;durP1;ratioP1;P2;durP2;ratioP2
38615;SDS011;24370;51.986;4.666;2023-05-14T00:00:13;19.73;;;17.73;;
38615;SDS011;24370;51.986;4.666;2023-05-14T00:02:40;17.42;;;15.77;;
38615;SDS011;24370;51.986;4.666;2023-05-14T00:05:06;19.15;;;17.02;;
38615;SDS011;24370;51.986;4.666;2023-05-14T00:07:31;22.48;;;16.30;;
38615;SDS011;24370;51.986;4.666;2023-05-14T00:09:57;19.35;;;17.35;;
38615;SDS011;24370;51.986;4.666;2023-05-14T00:12:23;16.88;;;15.13;;
38615;SDS011;24370;51.986;4.666;2023-05-14T00:14:48;20.10;;;17.00;;
38615;SDS011;24370;51.986;4.666;2023-05-14T00:17:14;20.17;;;18.17;;
38615;SDS011;24370;51.986;4.666;2023-05-14T00:19:39;18.42;;;16.73;;
38615;SDS011;24370;51.986;4.666;2023-05-14T00:22:06;17.40;;;15.60;;
38615;SDS011;24370;51.986;4.666;2023-05-14T00:24:32;18.63;;;16.67;;
38615;SDS011;24370;51.986;4.666;2023-05-14T00:26:58;18.00;;;16.23;;
38615;SDS011;24370;51.986;4.666;2023-05-14T00:29:23;20.42;;;18.42;;
38615;SDS011;24370;51.986;4.666;2023-05-14T00:31:48;19.40;;;17.38;;
38615;SDS011;24370;51.986;4.666;2023-05-14T00:34:14;19.20;;;17.17;;
38615;SDS011;24370;51.986;4.666;2023-05-14T00:36:39;18.42;;;16.52;;
38615;SDS011;24370;51.986;4.666;2023-05-14T00:39:04;18.83;;;16.77;;
38615;SDS011;24370;51.986;4.666;2023-05-14T00:41:30;18.30;;;16.50;;
38615;SDS011;24370;51.986;4.666;2023-05-14T00:43:55;18.65;;;15.57;;
38615;SDS011;24370;51.986;4.666;2023-05-14T00:46:21;17.23;;;15.50;;
38615;SDS011;24370;51.986;4.666;2023-05-14T00:48:46;19.02;;;17.10;;
38615;SDS011;24370;51.986;4.666;2023-05-14T00:51:12;17.35;;;15.07;;
38615;SDS011;24370;51.986;4.666;2023-05-14T00:53:37;17.23;;;15.52;;
38615;SDS011;24370;51.986;4.666;2023-05-14T00:56:04;23.05;;;18.52;;
38615;SDS011;24370;51.986;4.666;2023-05-14T00:58:29;17.25;;;15.52;;
38615;SDS011;24370;51.986;4.666;2023-05-14T01:00:55;19.05;;;17.15;;
38615;SDS011;24370;51.986;4.666;2023-05-14T01:03:21;18.88;;;16.88;;
38615;SDS011;24370;51.986;4.666;2023-05-14T01:10:54;17.63;;;15.82;;
38615;SDS011;24370;51.986;4.666;2023-05-14T01:15:54;19.88;;;16.65;;
38615;SDS011;24370;51.986;4.666;2023-05-14T01:18:21;18.02;;;16.10;;
38615;SDS011;24370;51.986;4.666;2023-05-14T01:20:49;18.35;;;16.50;;
38615;SDS011;24370;51.986;4.666;2023-05-14T01:23:17;18.95;;;15.65;;
38615;SDS011;24370;51.986;4.666;2023-05-14T01:25:43;17.73;;;15.93;;
38615;SDS011;24370;51.986;4.666;2023-05-14T01:28:18;16.98;;;15.38;;
38615;SDS011;24370;51.986;4.666;2023-05-14T01:33:17;18.27;;;16.20;;
38615;SDS011;24370;51.986;4.666;2023-05-14T01:35:43;18.20;;;16.30;;
38615;SDS011;24370;51.986;4.666;2023-05-14T01:38:10;22.63;;;17.35;;
38615;SDS011;24370;51.986;4.666;2023-05-14T01:40:37;22.25;;;18.00;;
38615;SDS011;24370;51.986;4.666;2023-05-14T01:43:06;17.77;;;16.03;;
38615;SDS011;24370;51.986;4.666;2023-05-14T01:45:34;19.33;;;17.27;;
38615;SDS011;24370;51.986;4.666;2023-05-14T01:48:00;19.30;;;17.30;;
38615;SDS011;24370;51.986;4.666;2023-05-14T01:50:25;20.98;;;17.80;;
38615;SDS011;24370;51.986;4.666;2023-05-14T01:52:51;18.65;;;16.63;;
38615;SDS011;24370;51.986;4.666;2023-05-14T01:55:20;20.52;;;16.77;;
38615;SDS011;24370;51.986;4.666;2023-05-14T01:57:48;18.40;;;16.50;;
38615;SDS011;24370;51.986;4.666;2023-05-14T02:00:17;18.23;;;16.33;;
38615;SDS011;24370;51.986;4.666;2023-05-14T02:02:42;18.83;;;16.90;;
38615;SDS011;24370;51.986;4.666;2023-05-14T02:05:09;18.43;;;16.63;;
38615;SDS011;24370;51.986;4.666;2023-05-14T02:07:35;17.70;;;15.90;;
38615;SDS011;24370;51.986;4.666;2023-05-14T02:10:01;20.00;;;16.20;;
38615;SDS011;24370;51.986;4.666;2023-05-14T02:12:26;21.47;;;16.70;;
38615;SDS011;24370;51.986;4.666;2023-05-14T02:14:51;19.77;;;17.57;;
38615;SDS011;24370;51.986;4.666;2023-05-14T02:17:17;19.20;;;16.93;;
38615;SDS011;24370;51.986;4.666;2023-05-14T02:19:45;20.02;;;16.90;;
38615;SDS011;24370;51.986;4.666;2023-05-14T02:22:11;19.25;;;16.95;;
38615;SDS011;24370;51.986;4.666;2023-05-14T02:24:36;19.27;;;16.90;;
38615;SDS011;24370;51.986;4.666;2023-05-14T02:27:02;20.23;;;16.63;;
38615;SDS011;24370;51.986;4.666;2023-05-14T02:29:27;21.05;;;17.00;;
38615;SDS011;24370;51.986;4.666;2023-05-14T02:31:53;21.42;;;17.45;;
38615;SDS011;24370;51.986;4.666;2023-05-14T02:34:18;21.23;;;15.52;;
38615;SDS011;24370;51.986;4.666;2023-05-14T02:36:44;19.33;;;17.47;;
38615;SDS011;24370;51.986;4.666;2023-05-14T02:39:09;18.53;;;16.50;;
38615;SDS011;24370;51.986;4.666;2023-05-14T02:41:34;18.00;;;16.23;;
38615;SDS011;24370;51.986;4.666;2023-05-14T02:44:00;20.53;;;16.57;;
38615;SDS011;24370;51.986;4.666;2023-05-14T02:46:25;19.47;;;17.47;;
38615;SDS011;24370;51.986;4.666;2023-05-14T02:48:51;23.07;;;17.53;;
38615;SDS011;24370;51.986;4.666;2023-05-14T02:51:18;17.53;;;15.50;;
38615;SDS011;24370;51.986;4.666;2023-05-14T02:53:44;19.55;;;17.00;;
38615;SDS011;24370;51.986;4.666;2023-05-14T02:56:09;17.23;;;15.47;;
38615;SDS011;24370;51.986;4.666;2023-05-14T02:58:34;18.77;;;16.87;;
38615;SDS011;24370;51.986;4.666;2023-05-14T03:01:00;19.10;;;16.95;;
38615;SDS011;24370;51.986;4.666;2023-05-14T03:03:25;17.43;;;15.70;;
38615;SDS011;24370;51.986;4.666;2023-05-14T03:05:50;17.52;;;15.57;;
38615;SDS011;24370;51.986;4.666;2023-05-14T03:08:16;17.38;;;15.77;;
38615;SDS011;24370;51.986;4.666;2023-05-14T03:10:41;17.42;;;15.75;;
38615;SDS011;24370;51.986;4.666;2023-05-14T03:13:06;17.43;;;15.57;;
38615;SDS011;24370;51.986;4.666;2023-05-14T03:15:32;17.57;;;15.87;;
38615;SDS011;24370;51.986;4.666;2023-05-14T03:17:57;17.37;;;15.63;;
38615;SDS011;24370;51.986;4.666;2023-05-14T03:20:23;17.73;;;15.93;;
38615;SDS011;24370;51.986;4.666;2023-05-14T03:22:49;21.53;;;14.57;;
38615;SDS011;24370;51.986;4.666;2023-05-14T03:25:15;18.80;;;16.80;;
38615;SDS011;24370;51.986;4.666;2023-05-14T03:27:40;17.93;;;16.13;;
38615;SDS011;24370;51.986;4.666;2023-05-14T03:30:06;18.17;;;16.30;;
38615;SDS011;24370;51.986;4.666;2023-05-14T03:32:32;16.97;;;15.27;;
38615;SDS011;24370;51.986;4.666;2023-05-14T03:34:57;20.00;;;15.57;;
38615;SDS011;24370;51.986;4.666;2023-05-14T03:37:23;17.10;;;14.90;;
38615;SDS011;24370;51.986;4.666;2023-05-14T03:39:49;17.23;;;15.07;;
38615;SDS011;24370;51.986;4.666;2023-05-14T03:42:14;19.40;;;16.30;;
38615;SDS011;24370;51.986;4.666;2023-05-14T03:44:39;21.33;;;19.03;;
38615;SDS011;24370;51.986;4.666;2023-05-14T03:47:05;17.17;;;15.53;;
38615;SDS011;24370;51.986;4.666;2023-05-14T03:49:30;19.87;;;15.00;;
38615;SDS011;24370;51.986;4.666;2023-05-14T03:51:56;18.77;;;16.80;;
38615;SDS011;24370;51.986;4.666;2023-05-14T03:54:23;17.43;;;15.63;;
38615;SDS011;24370;51.986;4.666;2023-05-14T03:56:48;17.17;;;15.40;;
38615;SDS011;24370;51.986;4.666;2023-05-14T03:59:14;17.50;;;15.73;;
38615;SDS011;24370;51.986;4.666;2023-05-14T04:01:39;17.00;;;15.47;;
38615;SDS011;24370;51.986;4.666;2023-05-14T04:04:05;18.90;;;16.67;;
38615;SDS011;24370;51.986;4.666;2023-05-14T04:06:30;17.10;;;15.40;;
38615;SDS011;24370;51.986;4.666;2023-05-14T04:08:56;18.23;;;16.37;;
38615;SDS011;24370;51.986;4.666;2023-05-14T04:11:22;18.77;;;16.97;;
38615;SDS011;24370;51.986;4.666;2023-05-14T04:13:47;17.83;;;16.00;;
38615;SDS011;24370;51.986;4.666;2023-05-14T04:16:12;24.00;;;16.47;;
38615;SDS011;24370;51.986;4.666;2023-05-14T04:18:38;19.03;;;16.43;;
38615;SDS011;24370;51.986;4.666;2023-05-14T04:21:04;18.63;;;16.63;;
38615;SDS011;24370;51.986;4.666;2023-05-14T04:23:29;19.33;;;17.33;;
38615;SDS011;24370;51.986;4.666;2023-05-14T04:25:56;19.23;;;17.33;;
38615;SDS011;24370;51.986;4.666;2023-05-14T04:28:21;17.30;;;15.50;;
38615;SDS011;24370;51.986;4.666;2023-05-14T04:30:47;23.90;;;16.97;;
38615;SDS011;24370;51.986;4.666;2023-05-14T04:33:12;19.87;;;17.00;;
38615;SDS011;24370;51.986;4.666;2023-05-14T04:35:38;18.57;;;16.77;;
38615;SDS011;24370;51.986;4.666;2023-05-14T04:38:03;18.57;;;16.70;;
38615;SDS011;24370;51.986;4.666;2023-05-14T04:40:29;20.00;;;18.00;;
38615;SDS011;24370;51.986;4.666;2023-05-14T04:42:55;19.63;;;17.77;;
38615;SDS011;24370;51.986;4.666;2023-05-14T04:45:20;20.50;;;18.30;;
38615;SDS011;24370;51.986;4.666;2023-05-14T04:47:46;17.20;;;15.50;;
38615;SDS011;24370;51.986;4.666;2023-05-14T04:50:11;17.00;;;15.30;;
38615;SDS011;24370;51.986;4.666;2023-05-14T04:52:37;18.33;;;15.00;;
38615;SDS011;24370;51.986;4.666;2023-05-14T04:55:05;18.20;;;16.37;;
38615;SDS011;24370;51.986;4.666;2023-05-14T04:57:31;21.63;;;17.87;;
38615;SDS011;24370;51.986;4.666;2023-05-14T04:59:56;17.67;;;15.90;;
38615;SDS011;24370;51.986;4.666;2023-05-14T05:02:21;19.77;;;16.73;;
38615;SDS011;24370;51.986;4.666;2023-05-14T05:04:47;17.97;;;16.07;;
38615;SDS011;24370;51.986;4.666;2023-05-14T05:07:12;20.03;;;17.30;;
38615;SDS011;24370;51.986;4.666;2023-05-14T05:09:38;18.03;;;16.20;;
38615;SDS011;24370;51.986;4.666;2023-05-14T05:12:04;18.90;;;17.03;;
38615;SDS011;24370;51.986;4.666;2023-05-14T05:14:30;17.77;;;15.97;;
38615;SDS011;24370;51.986;4.666;2023-05-14T05:16:55;18.13;;;16.30;;
38615;SDS011;24370;51.986;4.666;2023-05-14T05:19:20;17.67;;;15.80;;
38615;SDS011;24370;51.986;4.666;2023-05-14T05:21:46;18.42;;;15.90;;
38615;SDS011;24370;51.986;4.666;2023-05-14T05:24:11;19.08;;;17.08;;
38615;SDS011;24370;51.986;4.666;2023-05-14T05:26:37;18.77;;;17.00;;
38615;SDS011;24370;51.986;4.666;2023-05-14T05:29:06;20.02;;;17.48;;
38615;SDS011;24370;51.986;4.666;2023-05-14T05:31:31;19.05;;;17.17;;
38615;SDS011;24370;51.986;4.666;2023-05-14T05:33:57;19.13;;;17.33;;
38615;SDS011;24370;51.986;4.666;2023-05-14T05:36:24;18.75;;;16.95;;
38615;SDS011;24370;51.986;4.666;2023-05-14T05:38:50;19.52;;;17.70;;
38615;SDS011;24370;51.986;4.666;2023-05-14T05:41:15;19.47;;;16.93;;
38615;SDS011;24370;51.986;4.666;2023-05-14T05:43:40;18.27;;;16.47;;
38615;SDS011;24370;51.986;4.666;2023-05-14T05:46:06;20.15;;;17.55;;
38615;SDS011;24370;51.986;4.666;2023-05-14T05:48:31;17.67;;;16.00;;
38615;SDS011;24370;51.986;4.666;2023-05-14T05:50:57;18.58;;;16.65;;
38615;SDS011;24370;51.986;4.666;2023-05-14T05:53:22;19.05;;;17.08;;
38615;SDS011;24370;51.986;4.666;2023-05-14T05:55:47;20.38;;;17.70;;
38615;SDS011;24370;51.986;4.666;2023-05-14T05:58:15;22.67;;;18.58;;
38615;SDS011;24370;51.986;4.666;2023-05-14T06:00:41;22.80;;;20.10;;
38615;SDS011;24370;51.986;4.666;2023-05-14T06:03:06;21.45;;;17.30;;
38615;SDS011;24370;51.986;4.666;2023-05-14T06:05:32;21.08;;;18.80;;
38615;SDS011;24370;51.986;4.666;2023-05-14T06:07:57;25.63;;;20.55;;
38615;SDS011;24370;51.986;4.666;2023-05-14T06:10:22;26.35;;;20.38;;
38615;SDS011;24370;51.986;4.666;2023-05-14T06:12:48;23.15;;;18.25;;
38615;SDS011;24370;51.986;4.666;2023-05-14T06:15:13;24.20;;;20.20;;
38615;SDS011;24370;51.986;4.666;2023-05-14T06:17:39;21.42;;;19.20;;
38615;SDS011;24370;51.986;4.666;2023-05-14T06:20:05;19.88;;;17.83;;
38615;SDS011;24370;51.986;4.666;2023-05-14T06:22:32;21.80;;;18.90;;
38615;SDS011;24370;51.986;4.666;2023-05-14T06:24:57;22.05;;;19.40;;
38615;SDS011;24370;51.986;4.666;2023-05-14T06:27:23;25.38;;;18.90;;
38615;SDS011;24370;51.986;4.666;2023-05-14T06:29:48;22.77;;;19.88;;
38615;SDS011;24370;51.986;4.666;2023-05-14T06:32:14;24.52;;;17.77;;
38615;SDS011;24370;51.986;4.666;2023-05-14T06:34:40;22.42;;;18.38;;
38615;SDS011;24370;51.986;4.666;2023-05-14T06:37:06;23.70;;;18.10;;
38615;SDS011;24370;51.986;4.666;2023-05-14T06:39:33;20.25;;;17.48;;
38615;SDS011;24370;51.986;4.666;2023-05-14T06:41:59;26.40;;;18.15;;
38615;SDS011;24370;51.986;4.666;2023-05-14T06:44:24;22.77;;;19.13;;
38615;SDS011;24370;51.986;4.666;2023-05-14T06:46:50;20.83;;;18.63;;
38615;SDS011;24370;51.986;4.666;2023-05-14T06:49:16;23.52;;;18.63;;
38615;SDS011;24370;51.986;4.666;2023-05-14T06:51:41;22.52;;;20.27;;
38615;SDS011;24370;51.986;4.666;2023-05-14T06:54:06;28.65;;;20.38;;
38615;SDS011;24370;51.986;4.666;2023-05-14T06:56:32;21.27;;;18.27;;
38615;SDS011;24370;51.986;4.666;2023-05-14T06:58:57;24.65;;;20.92;;
38615;SDS011;24370;51.986;4.666;2023-05-14T07:01:22;25.35;;;18.65;;
38615;SDS011;24370;51.986;4.666;2023-05-14T07:03:48;24.23;;;19.05;;
38615;SDS011;24370;51.986;4.666;2023-05-14T07:06:13;21.77;;;18.42;;
38615;SDS011;24370;51.986;4.666;2023-05-14T07:08:39;27.80;;;19.65;;
38615;SDS011;24370;51.986;4.666;2023-05-14T07:11:04;21.75;;;19.70;;
38615;SDS011;24370;51.986;4.666;2023-05-14T07:13:30;23.35;;;19.23;;
38615;SDS011;24370;51.986;4.666;2023-05-14T07:15:55;24.55;;;19.67;;
38615;SDS011;24370;51.986;4.666;2023-05-14T07:18:22;22.70;;;20.10;;
38615;SDS011;24370;51.986;4.666;2023-05-14T07:20:48;21.42;;;19.20;;
38615;SDS011;24370;51.986;4.666;2023-05-14T07:23:13;25.42;;;21.10;;
38615;SDS011;24370;51.986;4.666;2023-05-14T07:25:39;22.13;;;19.85;;
38615;SDS011;24370;51.986;4.666;2023-05-14T07:28:05;21.88;;;19.50;;
38615;SDS011;24370;51.986;4.666;2023-05-14T07:30:30;20.13;;;18.05;;
38615;SDS011;24370;51.986;4.666;2023-05-14T07:32:55;20.48;;;17.88;;
38615;SDS011;24370;51.986;4.666;2023-05-14T07:35:21;21.30;;;19.02;;
38615;SDS011;24370;51.986;4.666;2023-05-14T07:37:47;20.27;;;17.77;;
38615;SDS011;24370;51.986;4.666;2023-05-14T07:40:12;19.50;;;17.50;;
38615;SDS011;24370;51.986;4.666;2023-05-14T07:42:38;20.20;;;17.70;;
38615;SDS011;24370;51.986;4.666;2023-05-14T07:45:06;19.83;;;17.95;;
38615;SDS011;24370;51.986;4.666;2023-05-14T07:47:32;21.25;;;19.23;;
38615;SDS011;24370;51.986;4.666;2023-05-14T07:49:58;18.60;;;16.73;;
38615;SDS011;24370;51.986;4.666;2023-05-14T07:52:24;17.70;;;16.00;;
38615;SDS011;24370;51.986;4.666;2023-05-14T07:54:49;17.50;;;15.90;;
38615;SDS011;24370;51.986;4.666;2023-05-14T07:57:15;19.42;;;17.52;;
38615;SDS011;24370;51.986;4.666;2023-05-14T07:59:41;20.13;;;18.10;;
38615;SDS011;24370;51.986;4.666;2023-05-14T08:02:06;19.17;;;17.27;;
38615;SDS011;24370;51.986;4.666;2023-05-14T08:04:34;21.00;;;18.45;;
38615;SDS011;24370;51.986;4.666;2023-05-14T08:06:59;22.90;;;17.90;;
38615;SDS011;24370;51.986;4.666;2023-05-14T08:09:25;20.63;;;18.35;;
38615;SDS011;24370;51.986;4.666;2023-05-14T08:11:50;17.15;;;15.48;;
38615;SDS011;24370;51.986;4.666;2023-05-14T08:14:16;18.33;;;16.45;;
38615;SDS011;24370;51.986;4.666;2023-05-14T08:16:41;16.83;;;15.43;;
38615;SDS011;24370;51.986;4.666;2023-05-14T08:19:06;19.00;;;17.20;;
38615;SDS011;24370;51.986;4.666;2023-05-14T08:21:32;16.75;;;15.27;;
38615;SDS011;24370;51.986;4.666;2023-05-14T08:23:57;17.35;;;15.82;;
38615;SDS011;24370;51.986;4.666;2023-05-14T08:26:23;15.45;;;13.45;;
38615;SDS011;24370;51.986;4.666;2023-05-14T08:28:48;17.23;;;15.65;;
38615;SDS011;24370;51.986;4.666;2023-05-14T08:31:13;14.35;;;13.25;;
38615;SDS011;24370;51.986;4.666;2023-05-14T08:33:39;15.95;;;14.75;;
38615;SDS011;24370;51.986;4.666;2023-05-14T08:36:05;15.95;;;14.55;;
38615;SDS011;24370;51.986;4.666;2023-05-14T08:38:31;17.58;;;15.93;;
38615;SDS011;24370;51.986;4.666;2023-05-14T08:40:57;16.88;;;15.35;;
38615;SDS011;24370;51.986;4.666;2023-05-14T08:43:26;16.92;;;15.63;;
38615;SDS011;24370;51.986;4.666;2023-05-14T08:45:59;16.88;;;15.48;;
38615;SDS011;24370;51.986;4.666;2023-05-14T08:48:31;16.73;;;15.30;;
38615;SDS011;24370;51.986;4.666;2023-05-14T08:50:58;16.90;;;15.20;;
38615;SDS011;24370;51.986;4.666;2023-05-14T08:53:24;17.00;;;15.32;;
38615;SDS011;24370;51.986;4.666;2023-05-14T08:55:50;17.67;;;15.93;;
38615;SDS011;24370;51.986;4.666;2023-05-14T08:58:17;17.27;;;15.57;;
38615;SDS011;24370;51.986;4.666;2023-05-14T09:00:43;16.55;;;15.15;;
38615;SDS011;24370;51.986;4.666;2023-05-14T09:03:09;16.17;;;14.93;;
38615;SDS011;24370;51.986;4.666;2023-05-14T09:05:35;17.65;;;15.85;;
38615;SDS011;24370;51.986;4.666;2023-05-14T09:08:01;18.85;;;17.15;;
38615;SDS011;24370;51.986;4.666;2023-05-14T09:10:26;15.23;;;13.82;;
38615;SDS011;24370;51.986;4.666;2023-05-14T09:12:52;16.67;;;15.27;;
38615;SDS011;24370;51.986;4.666;2023-05-14T09:15:17;16.30;;;14.75;;
38615;SDS011;24370;51.986;4.666;2023-05-14T09:17:43;18.00;;;14.20;;
38615;SDS011;24370;51.986;4.666;2023-05-14T09:20:08;15.95;;;14.70;;
38615;SDS011;24370;51.986;4.666;2023-05-14T09:22:37;15.15;;;14.05;;
38615;SDS011;24370;51.986;4.666;2023-05-14T09:25:03;15.57;;;14.27;;
38615;SDS011;24370;51.986;4.666;2023-05-14T09:27:31;14.45;;;13.20;;
38615;SDS011;24370;51.986;4.666;2023-05-14T09:30:10;15.07;;;13.77;;
38615;SDS011;24370;51.986;4.666;2023-05-14T09:32:38;14.30;;;13.35;;
38615;SDS011;24370;51.986;4.666;2023-05-14T09:35:08;13.63;;;12.73;;
38615;SDS011;24370;51.986;4.666;2023-05-14T09:37:48;12.93;;;12.13;;
38615;SDS011;24370;51.986;4.666;2023-05-14T09:40:15;13.15;;;12.15;;
38615;SDS011;24370;51.986;4.666;2023-05-14T09:42:41;13.18;;;12.27;;
38615;SDS011;24370;51.986;4.666;2023-05-14T09:45:07;13.75;;;12.45;;
38615;SDS011;24370;51.986;4.666;2023-05-14T09:47:33;14.13;;;13.32;;
38615;SDS011;24370;51.986;4.666;2023-05-14T09:49:59;14.45;;;13.48;;
38615;SDS011;24370;51.986;4.666;2023-05-14T09:52:25;16.08;;;14.57;;
38615;SDS011;24370;51.986;4.666;2023-05-14T09:54:51;14.23;;;13.20;;
38615;SDS011;24370;51.986;4.666;2023-05-14T09:57:17;14.35;;;13.27;;
38615;SDS011;24370;51.986;4.666;2023-05-14T09:59:42;14.23;;;13.32;;
38615;SDS011;24370;51.986;4.666;2023-05-14T10:02:11;13.73;;;12.82;;
38615;SDS011;24370;51.986;4.666;2023-05-14T10:04:46;13.85;;;12.65;;
38615;SDS011;24370;51.986;4.666;2023-05-14T10:07:12;11.75;;;11.05;;
38615;SDS011;24370;51.986;4.666;2023-05-14T10:09:38;13.38;;;12.48;;
38615;SDS011;24370;51.986;4.666;2023-05-14T10:12:05;13.73;;;12.57;;
38615;SDS011;24370;51.986;4.666;2023-05-14T10:14:32;13.77;;;12.85;;
38615;SDS011;24370;51.986;4.666;2023-05-14T10:17:02;12.45;;;11.55;;
38615;SDS011;24370;51.986;4.666;2023-05-14T10:19:31;12.23;;;11.45;;
38615;SDS011;24370;51.986;4.666;2023-05-14T10:22:02;12.25;;;11.40;;
38615;SDS011;24370;51.986;4.666;2023-05-14T10:24:29;11.88;;;11.18;;
38615;SDS011;24370;51.986;4.666;2023-05-14T10:26:55;11.88;;;11.15;;
38615;SDS011;24370;51.986;4.666;2023-05-14T10:29:35;12.18;;;11.38;;
38615;SDS011;24370;51.986;4.666;2023-05-14T10:32:05;12.65;;;11.50;;
38615;SDS011;24370;51.986;4.666;2023-05-14T10:34:32;11.73;;;10.93;;
38615;SDS011;24370;51.986;4.666;2023-05-14T10:37:02;13.50;;;12.38;;
38615;SDS011;24370;51.986;4.666;2023-05-14T10:44:48;12.43;;;11.52;;
38615;SDS011;24370;51.986;4.666;2023-05-14T10:47:16;12.57;;;11.88;;
38615;SDS011;24370;51.986;4.666;2023-05-14T10:49:42;12.85;;;11.93;;
38615;SDS011;24370;51.986;4.666;2023-05-14T10:52:10;13.38;;;12.30;;
38615;SDS011;24370;51.986;4.666;2023-05-14T10:54:36;11.77;;;10.98;;
38615;SDS011;24370;51.986;4.666;2023-05-14T10:57:02;12.82;;;11.57;;
38615;SDS011;24370;51.986;4.666;2023-05-14T10:59:27;11.85;;;11.05;;
38615;SDS011;24370;51.986;4.666;2023-05-14T11:01:53;14.25;;;13.18;;
38615;SDS011;24370;51.986;4.666;2023-05-14T11:04:23;12.43;;;11.63;;
38615;SDS011;24370;51.986;4.666;2023-05-14T11:06:51;12.88;;;11.88;;
38615;SDS011;24370;51.986;4.666;2023-05-14T11:09:17;14.63;;;13.25;;
38615;SDS011;24370;51.986;4.666;2023-05-14T11:11:45;15.48;;;14.07;;
38615;SDS011;24370;51.986;4.666;2023-05-14T11:14:11;11.88;;;11.02;;
38615;SDS011;24370;51.986;4.666;2023-05-14T11:16:37;12.55;;;11.75;;
38615;SDS011;24370;51.986;4.666;2023-05-14T11:19:06;13.57;;;12.68;;
38615;SDS011;24370;51.986;4.666;2023-05-14T11:21:31;13.18;;;12.07;;
38615;SDS011;24370;51.986;4.666;2023-05-14T11:23:58;11.98;;;11.07;;
38615;SDS011;24370;51.986;4.666;2023-05-14T11:26:24;12.68;;;11.77;;
38615;SDS011;24370;51.986;4.666;2023-05-14T11:28:50;13.05;;;12.05;;
38615;SDS011;24370;51.986;4.666;2023-05-14T11:31:15;12.45;;;11.52;;
38615;SDS011;24370;51.986;4.666;2023-05-14T11:33:41;13.15;;;12.25;;
38615;SDS011;24370;51.986;4.666;2023-05-14T11:36:07;11.23;;;10.52;;
38615;SDS011;24370;51.986;4.666;2023-05-14T11:38:35;13.15;;;11.95;;
38615;SDS011;24370;51.986;4.666;2023-05-14T11:41:12;13.18;;;12.07;;
38615;SDS011;24370;51.986;4.666;2023-05-14T11:43:38;12.02;;;11.30;;
38615;SDS011;24370;51.986;4.666;2023-05-14T11:46:03;13.55;;;12.65;;
38615;SDS011;24370;51.986;4.666;2023-05-14T11:48:30;14.23;;;13.13;;
38615;SDS011;24370;51.986;4.666;2023-05-14T11:50:56;11.88;;;11.07;;
38615;SDS011;24370;51.986;4.666;2023-05-14T11:53:25;11.95;;;11.20;;
38615;SDS011;24370;51.986;4.666;2023-05-14T11:55:52;13.25;;;12.30;;
38615;SDS011;24370;51.986;4.666;2023-05-14T11:58:18;13.07;;;12.25;;
38615;SDS011;24370;51.986;4.666;2023-05-14T12:00:44;13.27;;;12.27;;
38615;SDS011;24370;51.986;4.666;2023-05-14T12:03:10;13.38;;;12.07;;
38615;SDS011;24370;51.986;4.666;2023-05-14T12:05:36;12.75;;;11.88;;
38615;SDS011;24370;51.986;4.666;2023-05-14T12:08:18;12.95;;;11.75;;
38615;SDS011;24370;51.986;4.666;2023-05-14T12:10:44;12.30;;;11.40;;
38615;SDS011;24370;51.986;4.666;2023-05-14T12:13:09;12.52;;;11.70;;
38615;SDS011;24370;51.986;4.666;2023-05-14T12:15:34;12.85;;;12.05;;
38615;SDS011;24370;51.986;4.666;2023-05-14T12:18:00;13.13;;;12.10;;
38615;SDS011;24370;51.986;4.666;2023-05-14T12:20:26;12.15;;;11.45;;
38615;SDS011;24370;51.986;4.666;2023-05-14T12:22:53;13.68;;;12.85;;
38615;SDS011;24370;51.986;4.666;2023-05-14T12:25:19;13.55;;;12.30;;
38615;SDS011;24370;51.986;4.666;2023-05-14T12:27:44;14.48;;;13.27;;
38615;SDS011;24370;51.986;4.666;2023-05-14T12:30:10;14.00;;;13.20;;
38615;SDS011;24370;51.986;4.666;2023-05-14T12:32:37;14.60;;;13.43;;
38615;SDS011;24370;51.986;4.666;2023-05-14T12:35:06;13.50;;;12.40;;
38615;SDS011;24370;51.986;4.666;2023-05-14T12:37:31;14.93;;;13.80;;
38615;SDS011;24370;51.986;4.666;2023-05-14T12:39:58;13.90;;;12.90;;
38615;SDS011;24370;51.986;4.666;2023-05-14T12:42:23;13.40;;;12.20;;
38615;SDS011;24370;51.986;4.666;2023-05-14T12:44:48;13.38;;;12.32;;
38615;SDS011;24370;51.986;4.666;2023-05-14T12:47:14;12.65;;;11.85;;
38615;SDS011;24370;51.986;4.666;2023-05-14T12:49:42;12.82;;;12.00;;
38615;SDS011;24370;51.986;4.666;2023-05-14T12:52:07;13.57;;;12.63;;
38615;SDS011;24370;51.986;4.666;2023-05-14T12:54:33;14.25;;;12.90;;
38615;SDS011;24370;51.986;4.666;2023-05-14T12:56:58;13.93;;;12.85;;
38615;SDS011;24370;51.986;4.666;2023-05-14T12:59:23;13.32;;;12.45;;
38615;SDS011;24370;51.986;4.666;2023-05-14T13:01:49;13.27;;;12.48;;
38615;SDS011;24370;51.986;4.666;2023-05-14T13:04:14;14.32;;;13.02;;
38615;SDS011;24370;51.986;4.666;2023-05-14T13:06:40;16.10;;;14.80;;
38615;SDS011;24370;51.986;4.666;2023-05-14T13:09:05;13.63;;;12.73;;
38615;SDS011;24370;51.986;4.666;2023-05-14T13:11:32;15.85;;;14.60;;
38615;SDS011;24370;51.986;4.666;2023-05-14T13:13:58;14.38;;;13.38;;
38615;SDS011;24370;51.986;4.666;2023-05-14T13:16:26;15.10;;;13.82;;
38615;SDS011;24370;51.986;4.666;2023-05-14T13:18:52;13.63;;;12.77;;
38615;SDS011;24370;51.986;4.666;2023-05-14T13:21:17;12.70;;;11.93;;
38615;SDS011;24370;51.986;4.666;2023-05-14T13:23:42;14.73;;;13.52;;
38615;SDS011;24370;51.986;4.666;2023-05-14T13:26:08;16.05;;;14.65;;
38615;SDS011;24370;51.986;4.666;2023-05-14T13:28:33;13.88;;;12.85;;
38615;SDS011;24370;51.986;4.666;2023-05-14T13:31:06;13.80;;;12.73;;
38615;SDS011;24370;51.986;4.666;2023-05-14T13:33:34;13.50;;;12.50;;
38615;SDS011;24370;51.986;4.666;2023-05-14T13:36:00;15.75;;;14.50;;
38615;SDS011;24370;51.986;4.666;2023-05-14T13:38:25;13.18;;;12.27;;
38615;SDS011;24370;51.986;4.666;2023-05-14T13:40:51;14.50;;;13.38;;
38615;SDS011;24370;51.986;4.666;2023-05-14T13:43:16;15.07;;;14.07;;
38615;SDS011;24370;51.986;4.666;2023-05-14T13:45:42;15.20;;;14.10;;
38615;SDS011;24370;51.986;4.666;2023-05-14T13:48:07;14.40;;;13.20;;
38615;SDS011;24370;51.986;4.666;2023-05-14T13:50:32;14.95;;;13.85;;
38615;SDS011;24370;51.986;4.666;2023-05-14T13:52:58;12.75;;;11.65;;
38615;SDS011;24370;51.986;4.666;2023-05-14T13:55:23;13.73;;;12.82;;
38615;SDS011;24370;51.986;4.666;2023-05-14T13:57:48;13.38;;;12.48;;
38615;SDS011;24370;51.986;4.666;2023-05-14T14:00:14;13.52;;;12.40;;
38615;SDS011;24370;51.986;4.666;2023-05-14T14:02:40;14.82;;;13.60;;
38615;SDS011;24370;51.986;4.666;2023-05-14T14:05:05;13.75;;;12.52;;
38615;SDS011;24370;51.986;4.666;2023-05-14T14:07:31;13.45;;;12.52;;
38615;SDS011;24370;51.986;4.666;2023-05-14T14:09:56;14.07;;;12.73;;
38615;SDS011;24370;51.986;4.666;2023-05-14T14:12:22;13.77;;;12.85;;
38615;SDS011;24370;51.986;4.666;2023-05-14T14:14:47;20.63;;;13.23;;
38615;SDS011;24370;51.986;4.666;2023-05-14T14:17:13;14.98;;;13.55;;
38615;SDS011;24370;51.986;4.666;2023-05-14T14:19:38;12.63;;;11.60;;
38615;SDS011;24370;51.986;4.666;2023-05-14T14:22:03;17.52;;;15.90;;
38615;SDS011;24370;51.986;4.666;2023-05-14T14:24:29;16.08;;;14.48;;
38615;SDS011;24370;51.986;4.666;2023-05-14T14:26:54;14.55;;;13.48;;
38615;SDS011;24370;51.986;4.666;2023-05-14T14:29:20;15.70;;;14.52;;